Time;durP1;ratioP1;P1;durP2;ratioP2;P2;SDS_P1;SDS_P2;PMS_P1;PMS_P2;Temp;Humidity;BMP_temperature;BMP_pressure;BME280_temperature;BME280_humidity;BME280_pressure;Samples;Min_cycle;Max_cycle;Signal;HPM_P1;HPM_P2
2022/08/04 00:01:23;;;;;;;4.07;3.75;;;26.50;99.90;;;;;;5008173;28;20308;-71
2022/08/04 00:03:57;;;;;;;3.45;3.25;;;26.50;99.90;;;;;;5008200;28;20209;-72
2022/08/04 00:06:34;;;;;;;3.70;3.40;;;26.50;99.90;;;;;;5008077;28;20722;-72
2022/08/04 00:09:04;;;;;;;3.70;3.00;;;26.60;99.90;;;;;;4998926;28;20222;-72
2022/08/04 00:11:33;;;;;;;3.75;3.55;;;26.50;99.90;;;;;;4988423;28;20213;-72
2022/08/04 00:14:03;;;;;;;3.22;3.13;;;26.50;99.90;;;;;;4988406;28;20209;-72
2022/08/04 00:16:34;;;;;;;3.65;3.30;;;26.50;99.90;;;;;;4988704;28;20198;-72
2022/08/04 00:19:05;;;;;;;3.50;3.20;;;26.50;99.90;;;;;;4988601;28;20194;-71
2022/08/04 00:21:36;;;;;;;3.60;3.30;;;26.40;99.90;;;;;;4988233;28;20714;-72
2022/08/04 00:24:03;;;;;;;3.70;3.50;;;26.40;99.90;;;;;;4998963;28;20208;-70
2022/08/04 00:26:30;;;;;;;3.90;3.65;;;26.40;99.90;;;;;;5007495;28;20224;-71
2022/08/04 00:28:57;;;;;;;3.80;3.60;;;26.40;99.90;;;;;;5007883;28;20236;-70
2022/08/04 00:31:26;;;;;;;5.43;3.25;;;26.40;99.90;;;;;;5006045;28;20220;-70
2022/08/04 00:33:53;;;;;;;4.18;3.60;;;26.40;99.90;;;;;;5007884;28;20213;-70
2022/08/04 00:36:23;;;;;;;3.50;3.30;;;26.40;99.90;;;;;;5007782;28;20210;-70
2022/08/04 00:38:51;;;;;;;3.88;3.67;;;26.30;99.90;;;;;;5007767;28;20201;-71
2022/08/04 00:41:24;;;;;;;4.32;3.67;;;26.30;99.90;;;;;;5007518;28;20747;-70
2022/08/04 00:44:08;;;;;;;3.90;3.70;;;26.30;99.90;;;;;;5007811;28;20275;-70
2022/08/04 00:46:47;;;;;;;3.85;3.55;;;26.30;99.90;;;;;;5007171;28;20201;-70
2022/08/04 00:49:48;;;;;;;3.90;3.70;;;26.30;99.90;;;;;;5009338;28;20683;-70
2022/08/04 00:52:28;;;;;;;3.85;3.65;;;26.30;99.90;;;;;;5011618;28;20189;-70
2022/08/04 00:55:26;;;;;;;4.05;3.78;;;26.20;99.90;;;;;;5011122;28;20693;-70
2022/08/04 00:58:12;;;;;;;4.75;4.00;;;26.20;99.90;;;;;;5005149;28;20248;-69
2022/08/04 01:00:47;;;;;;;4.20;3.88;;;26.20;99.90;;;;;;5010647;28;20204;-69
2022/08/04 01:03:27;;;;;;;3.92;3.65;;;26.10;99.90;;;;;;5011194;28;20194;-70
2022/08/04 01:06:06;;;;;;;3.75;3.55;;;26.10;99.90;;;;;;5011263;28;20197;-69
2022/08/04 01:08:49;;;;;;;3.67;3.47;;;26.10;99.90;;;;;;5010861;28;20217;-69
2022/08/04 01:11:40;;;;;;;4.18;3.88;;;26.10;99.90;;;;;;5010749;28;20196;-69
2022/08/04 01:14:24;;;;;;;4.07;3.78;;;26.10;99.90;;;;;;5010780;28;20300;-69
2022/08/04 01:16:53;;;;;;;4.03;3.70;;;26.10;99.90;;;;;;4992948;28;20202;-69
2022/08/04 01:19:54;;;;;;;4.90;4.15;;;26.10;99.90;;;;;;4991073;28;20950;-69
2022/08/04 01:23:00;;;;;;;4.15;3.80;;;26.00;99.90;;;;;;4991219;28;20261;-69
2022/08/04 01:26:08;;;;;;;4.68;4.28;;;25.80;99.90;;;;;;4990857;28;20210;-70
2022/08/04 01:28:58;;;;;;;5.97;3.80;;;25.80;99.90;;;;;;4964196;28;20228;-70
2022/08/04 01:31:34;;;;;;;4.00;3.55;;;25.80;99.90;;;;;;4990778;28;20256;-69
2022/08/04 01:34:05;;;;;;;3.90;3.70;;;25.80;99.90;;;;;;4991124;28;20202;-72
2022/08/04 01:36:36;;;;;;;4.00;3.80;;;25.70;99.90;;;;;;4991106;28;20216;-71
2022/08/04 01:39:39;;;;;;;3.92;3.63;;;25.70;99.90;;;;;;4991206;28;20206;-71
2022/08/04 01:41:52;;;;;;;3.85;3.53;;;25.70;99.90;;;;;;4990415;28;20260;-71
2022/08/04 01:44:23;;;;;;;4.57;3.85;;;25.60;99.90;;;;;;4990846;28;20212;-70
2022/08/04 01:46:52;;;;;;;6.18;3.95;;;25.60;99.90;;;;;;4990619;28;20205;-70
2022/08/04 01:49:21;;;;;;;4.03;3.72;;;25.60;99.90;;;;;;4990622;28;20240;-70
2022/08/04 01:51:50;;;;;;;4.15;3.75;;;25.60;99.90;;;;;;4990226;28;20245;-71
2022/08/04 01:54:18;;;;;;;4.25;4.00;;;25.60;99.90;;;;;;5002979;28;20232;-70
2022/08/04 01:56:47;;;;;;;5.68;3.90;;;25.60;99.90;;;;;;4997861;28;20262;-70
2022/08/04 01:59:17;;;;;;;4.82;4.10;;;25.60;99.90;;;;;;4990290;28;20615;-71
2022/08/04 02:01:46;;;;;;;4.45;4.15;;;25.50;99.90;;;;;;4989767;28;20217;-71
2022/08/04 02:04:14;;;;;;;4.10;3.80;;;25.50;99.90;;;;;;4990886;28;20217;-72
2022/08/04 02:06:50;;;;;;;4.43;4.13;;;25.50;99.90;;;;;;4990604;28;20253;-72
2022/08/04 02:09:23;;;;;;;4.00;3.75;;;25.50;99.90;;;;;;4990668;28;20230;-72
2022/08/04 02:12:02;;;;;;;4.10;3.80;;;25.50;99.90;;;;;;4989996;28;20671;-72
2022/08/04 02:14:44;;;;;;;4.43;4.05;;;25.50;99.90;;;;;;4990681;28;20218;-72
2022/08/04 02:17:14;;;;;;;4.22;3.90;;;25.50;99.90;;;;;;5009632;28;20561;-71
2022/08/04 02:20:01;;;;;;;4.55;4.10;;;25.40;99.90;;;;;;5009929;28;20209;-71
2022/08/04 02:22:28;;;;;;;4.38;3.95;;;25.40;99.90;;;;;;5009641;28;20214;-71
2022/08/04 02:25:03;;;;;;;4.40;4.20;;;25.40;99.90;;;;;;5009583;28;20206;-70
2022/08/04 02:27:35;;;;;;;4.10;3.70;;;25.40;99.90;;;;;;5009321;28;20760;-71
2022/08/04 02:30:05;;;;;;;4.10;3.70;;;25.30;99.90;;;;;;4989477;28;20232;-71
2022/08/04 02:32:38;;;;;;;4.10;3.80;;;25.30;99.90;;;;;;4987542;28;20252;-71
2022/08/04 02:35:08;;;;;;;4.55;4.15;;;25.30;99.90;;;;;;4988329;28;20213;-71
2022/08/04 02:37:35;;;;;;;5.40;4.47;;;25.20;99.90;;;;;;4988090;28;20631;-71
2022/08/04 02:40:06;;;;;;;4.30;4.00;;;25.20;99.90;;;;;;4989165;28;20206;-72
2022/08/04 02:42:33;;;;;;;4.30;4.00;;;25.20;99.90;;;;;;5007128;28;20605;-71
2022/08/04 02:45:01;;;;;;;4.28;4.05;;;25.20;99.90;;;;;;5007399;28;20566;-71
2022/08/04 02:47:29;;;;;;;5.20;4.70;;;25.20;99.90;;;;;;5007280;28;20214;-71
2022/08/04 02:49:58;;;;;;;4.45;4.15;;;25.20;99.90;;;;;;5006858;28;20796;-71
2022/08/04 02:52:26;;;;;;;4.07;3.78;;;25.20;99.90;;;;;;5007151;28;20220;-71
2022/08/04 02:54:55;;;;;;;4.78;4.38;;;25.10;99.90;;;;;;5007136;28;20218;-71
2022/08/04 02:57:26;;;;;;;5.40;4.50;;;25.10;99.90;;;;;;4991443;28;20240;-71
2022/08/04 03:00:08;;;;;;;4.50;4.20;;;25.10;99.90;;;;;;4987219;28;20743;-71
2022/08/04 03:02:50;;;;;;;4.60;4.30;;;25.10;99.90;;;;;;4987354;28;20206;-71
2022/08/04 03:05:22;;;;;;;10.85;4.50;;;25.00;99.90;;;;;;5006599;28;20247;-69
2022/08/04 03:08:15;;;;;;;4.40;4.10;;;25.00;99.90;;;;;;4990557;28;20985;-70
2022/08/04 03:11:27;;;;;;;4.72;4.20;;;25.00;99.90;;;;;;5007025;28;20771;-70
2022/08/04 03:14:33;;;;;;;4.68;4.38;;;24.90;99.90;;;;;;5007923;28;20564;-69
2022/08/04 03:17:33;;;;;;;6.45;4.57;;;24.90;99.90;;;;;;5007819;28;20682;-70
2022/08/04 03:20:27;;;;;;;4.68;4.35;;;24.90;99.90;;;;;;5001324;28;20214;-70
2022/08/04 03:23:33;;;;;;;4.97;4.68;;;24.90;99.90;;;;;;4998453;28;20211;-70
2022/08/04 03:26:33;;;;;;;5.28;4.80;;;24.90;99.90;;;;;;5006460;28;20209;-69
2022/08/04 03:29:39;;;;;;;4.55;4.15;;;24.80;99.90;;;;;;4982369;28;20236;-70
2022/08/04 03:32:29;;;;;;;5.45;5.05;;;24.80;99.90;;;;;;4996505;28;20241;-70
2022/08/04 03:35:24;;;;;;;5.13;4.82;;;24.80;99.90;;;;;;5005159;28;20220;-70
2022/08/04 03:38:21;;;;;;;5.30;4.93;;;24.80;99.90;;;;;;5008157;28;20193;-70
2022/08/04 03:41:19;;;;;;;6.32;4.43;;;24.80;99.90;;;;;;5006972;28;20224;-69
2022/08/04 03:44:21;;;;;;;5.07;4.60;;;24.80;99.90;;;;;;5007895;28;20198;-70
2022/08/04 03:47:18;;;;;;;5.82;5.10;;;24.70;99.90;;;;;;5007076;28;20205;-69
2022/08/04 03:50:12;;;;;;;4.82;4.53;;;24.80;99.90;;;;;;5008184;28;20245;-70
2022/08/04 03:53:07;;;;;;;4.80;4.40;;;24.70;99.90;;;;;;5007874;28;20194;-70
2022/08/04 03:55:59;;;;;;;5.32;4.82;;;24.70;99.90;;;;;;4988262;28;20208;-70
2022/08/04 03:59:01;;;;;;;5.22;4.72;;;24.70;99.90;;;;;;4988229;28;20217;-70
2022/08/04 04:01:54;;;;;;;5.50;4.93;;;24.60;99.90;;;;;;4985212;28;20218;-70
2022/08/04 04:04:53;;;;;;;5.18;4.72;;;24.60;99.90;;;;;;4955493;28;20210;-70
2022/08/04 04:07:53;;;;;;;6.55;5.22;;;24.70;99.90;;;;;;4988686;28;20270;-70
2022/08/04 04:10:38;;;;;;;5.40;5.00;;;24.60;99.90;;;;;;4988434;28;20226;-70
2022/08/04 04:13:43;;;;;;;5.63;5.18;;;24.60;99.90;;;;;;4988282;28;20198;-70
2022/08/04 04:16:36;;;;;;;5.38;4.90;;;24.60;99.90;;;;;;4953058;28;20209;-70
2022/08/04 04:19:24;;;;;;;10.18;6.85;;;24.60;99.90;;;;;;4988495;28;20199;-70
2022/08/04 04:22:07;;;;;;;8.02;5.93;;;24.60;99.90;;;;;;4987843;28;20205;-70
2022/08/04 04:24:49;;;;;;;7.80;5.15;;;24.60;99.90;;;;;;5005444;28;20316;-70
2022/08/04 04:27:28;;;;;;;5.30;4.90;;;24.70;99.90;;;;;;5011783;28;20201;-70
2022/08/04 04:30:05;;;;;;;4.95;4.63;;;24.70;99.90;;;;;;5011606;28;20225;-70
2022/08/04 04:33:01;;;;;;;4.80;4.50;;;24.70;99.90;;;;;;5011460;28;20228;-70
2022/08/04 04:35:35;;;;;;;5.25;4.63;;;24.80;99.90;;;;;;4991795;28;20212;-70
2022/08/04 04:38:30;;;;;;;4.75;4.50;;;24.80;99.90;;;;;;5011645;28;20564;-70
2022/08/04 04:41:11;;;;;;;5.60;4.82;;;24.80;99.90;;;;;;5011345;28;20202;-70
2022/08/04 04:43:57;;;;;;;5.85;5.30;;;24.80;99.90;;;;;;5011301;28;20324;-70
2022/08/04 04:46:37;;;;;;;6.65;4.95;;;24.80;99.90;;;;;;5011592;28;20198;-70
2022/08/04 04:49:24;;;;;;;5.28;4.82;;;24.90;99.90;;;;;;5011481;28;20197;-70
2022/08/04 04:51:58;;;;;;;5.10;4.57;;;24.80;99.90;;;;;;5011383;28;20562;-70
2022/08/04 04:54:32;;;;;;;5.45;4.82;;;24.90;99.90;;;;;;5011599;28;20210;-70
2022/08/04 04:57:07;;;;;;;5.55;5.10;;;24.90;99.90;;;;;;5010806;28;20581;-70
2022/08/04 04:59:38;;;;;;;5.55;5.10;;;25.00;99.90;;;;;;5011378;28;20194;-70
2022/08/04 05:02:38;;;;;;;6.50;5.82;;;24.90;99.90;;;;;;5011591;28;20217;-70
2022/08/04 05:05:43;;;;;;;7.10;6.45;;;24.90;99.90;;;;;;5010769;28;20202;-70
2022/08/04 05:08:42;;;;;;;6.72;5.78;;;25.00;99.90;;;;;;4991532;28;20194;-70
2022/08/04 05:11:54;;;;;;;6.28;5.68;;;25.00;99.90;;;;;;4991390;28;20783;-70
2022/08/04 05:14:27;;;;;;;8.38;5.05;;;25.00;99.90;;;;;;4976020;28;20206;-70
2022/08/04 05:17:01;;;;;;;6.25;5.85;;;25.00;99.90;;;;;;4991392;28;20198;-70
2022/08/04 05:19:41;;;;;;;5.90;5.38;;;24.90;99.90;;;;;;4990901;28;20588;-70
2022/08/04 05:22:12;;;;;;;6.68;6.18;;;24.90;99.90;;;;;;4991227;28;20208;-70
2022/08/04 05:24:42;;;;;;;9.55;6.47;;;24.90;99.90;;;;;;5006025;28;20212;-70
2022/08/04 05:27:14;;;;;;;9.52;6.43;;;24.80;99.90;;;;;;5010565;28;20209;-70
2022/08/04 05:29:49;;;;;;;9.43;8.18;;;24.90;99.90;;;;;;5010714;28;20222;-70
2022/08/04 05:32:17;;;;;;;8.27;7.55;;;25.00;99.90;;;;;;5010525;28;20606;-70
2022/08/04 05:34:52;;;;;;;9.02;8.23;;;25.00;99.90;;;;;;5010469;28;20210;-70
2022/08/04 05:37:22;;;;;;;10.07;9.20;;;25.00;99.90;;;;;;5010660;28;20200;-70
2022/08/04 05:39:55;;;;;;;10.60;9.60;;;25.00;99.90;;;;;;5010377;28;20220;-70
2022/08/04 05:42:22;;;;;;;15.38;12.93;;;25.10;99.90;;;;;;5010388;28;20221;-70
2022/08/04 05:44:50;;;;;;;20.67;17.67;;;25.20;99.90;;;;;;5010185;28;20209;-70
2022/08/04 05:47:20;;;;;;;34.53;26.95;;;25.20;99.90;;;;;;5010135;28;21057;-70
2022/08/04 05:49:48;;;;;;;43.75;30.85;;;25.30;99.90;;;;;;5010254;28;20272;-70
2022/08/04 05:52:16;;;;;;;44.50;31.33;;;25.30;99.90;;;;;;5010339;28;20201;-70
2022/08/04 05:54:43;;;;;;;43.20;31.67;;;25.30;99.90;;;;;;5010098;28;20216;-70
2022/08/04 05:57:11;;;;;;;44.10;32.67;;;25.40;99.90;;;;;;5009822;28;20249;-70
2022/08/04 05:59:41;;;;;;;56.03;43.35;;;25.40;99.90;;;;;;5010020;28;20250;-70
2022/08/04 06:02:09;;;;;;;63.55;48.08;;;25.40;99.90;;;;;;5010043;28;20194;-70
2022/08/04 06:04:39;;;;;;;57.63;45.40;;;25.40;99.90;;;;;;5009950;28;20223;-70
2022/08/04 06:07:09;;;;;;;57.65;43.67;;;25.50;99.90;;;;;;5010233;28;20237;-70
2022/08/04 06:09:37;;;;;;;58.63;44.08;;;25.50;99.90;;;;;;5010075;28;20197;-70
2022/08/04 06:12:08;;;;;;;69.97;50.00;;;25.50;99.90;;;;;;5009851;28;20215;-70
2022/08/04 06:14:40;;;;;;;60.65;46.95;;;25.40;99.90;;;;;;5009892;28;20229;-70
2022/08/04 06:17:08;;;;;;;87.03;58.42;;;25.30;99.90;;;;;;5009865;28;20202;-70
2022/08/04 06:19:36;;;;;;;88.38;61.72;;;25.20;99.90;;;;;;5009680;28;21145;-70
2022/08/04 06:22:06;;;;;;;87.35;57.50;;;25.20;99.90;;;;;;5009202;28;20216;-70
2022/08/04 06:24:37;;;;;;;110.88;74.78;;;25.30;99.90;;;;;;5009722;28;20212;-70
2022/08/04 06:27:05;;;;;;;124.47;84.60;;;25.40;99.90;;;;;;5009704;28;20225;-70
2022/08/04 06:29:35;;;;;;;124.82;88.88;;;25.40;99.90;;;;;;5009601;28;20205;-70
2022/08/04 06:32:12;;;;;;;119.35;82.78;;;25.50;99.90;;;;;;5009565;28;20312;-70
2022/08/04 06:34:40;;;;;;;125.80;85.85;;;25.50;99.90;;;;;;5009714;28;20189;-70
2022/08/04 06:37:08;;;;;;;115.93;81.65;;;25.60;99.90;;;;;;5009232;28;20210;-70
2022/08/04 06:39:36;;;;;;;104.03;71.03;;;25.60;99.80;;;;;;5009249;28;20220;-70
2022/08/04 06:42:05;;;;;;;58.80;43.10;;;25.70;99.60;;;;;;5008959;28;20202;-70
2022/08/04 06:44:34;;;;;;;20.98;16.45;;;25.80;99.60;;;;;;5009409;28;20233;-70
2022/08/04 06:47:02;;;;;;;12.13;10.90;;;25.80;99.70;;;;;;5008847;28;20206;-70
2022/08/04 06:49:31;;;;;;;9.07;7.68;;;25.80;99.90;;;;;;5009479;28;20217;-70
2022/08/04 06:51:59;;;;;;;7.53;6.15;;;25.90;99.90;;;;;;5009703;28;20295;-70
2022/08/04 06:54:26;;;;;;;6.30;5.70;;;25.90;99.90;;;;;;5009348;28;21020;-70
2022/08/04 06:56:56;;;;;;;7.22;5.95;;;26.00;99.80;;;;;;5008763;28;20245;-70
2022/08/04 06:59:24;;;;;;;6.03;5.53;;;26.00;99.80;;;;;;5009321;28;20212;-70
2022/08/04 07:01:52;;;;;;;8.57;6.40;;;26.00;99.80;;;;;;5009009;28;20210;-70
2022/08/04 07:04:19;;;;;;;9.10;8.27;;;26.00;99.50;;;;;;5009089;28;20212;-70
2022/08/04 07:06:46;;;;;;;11.93;9.75;;;26.10;99.00;;;;;;5009059;28;20201;-70
2022/08/04 07:09:13;;;;;;;14.52;11.55;;;26.10;99.00;;;;;;5008969;28;20216;-70
2022/08/04 07:11:40;;;;;;;22.85;18.20;;;26.10;99.00;;;;;;5008082;28;20737;-70
2022/08/04 07:14:09;;;;;;;30.05;21.88;;;26.10;99.00;;;;;;5008886;28;20209;-70
2022/08/04 07:16:36;;;;;;;32.75;23.60;;;26.10;98.80;;;;;;5008691;28;20210;-70
2022/08/04 07:19:03;;;;;;;33.20;24.52;;;26.20;98.90;;;;;;5008325;28;20284;-70
2022/08/04 07:21:30;;;;;;;34.70;24.85;;;26.20;98.60;;;;;;5008690;28;20202;-70
2022/08/04 07:23:57;;;;;;;34.50;24.75;;;26.20;98.40;;;;;;5008651;28;20208;-70
2022/08/04 07:26:27;;;;;;;42.53;29.88;;;26.30;98.60;;;;;;5008257;28;20571;-70
2022/08/04 07:28:55;;;;;;;50.97;37.42;;;26.30;98.00;;;;;;5008321;28;20579;-69
2022/08/04 07:31:24;;;;;;;53.88;38.58;;;26.30;97.70;;;;;;5008112;28;20587;-70
2022/08/04 07:33:52;;;;;;;60.38;44.22;;;26.40;97.80;;;;;;5008239;28;20586;-69
2022/08/04 07:36:19;;;;;;;59.05;43.67;;;26.40;97.80;;;;;;5008155;28;20206;-70
2022/08/04 07:38:46;;;;;;;71.85;48.13;;;26.40;97.60;;;;;;5008174;28;20292;-69
2022/08/04 07:41:12;;;;;;;64.28;45.65;;;26.50;97.50;;;;;;5007838;28;20566;-70
2022/08/04 07:43:40;;;;;;;60.08;43.67;;;26.50;97.30;;;;;;5007830;28;20241;-70
2022/08/04 07:46:07;;;;;;;55.15;39.92;;;26.50;97.20;;;;;;5008249;28;20318;-70
2022/08/04 07:48:35;;;;;;;54.33;39.30;;;26.50;97.30;;;;;;5008075;28;20556;-69
2022/08/04 07:51:05;;;;;;;48.08;37.25;;;26.60;97.40;;;;;;5008186;28;20344;-69
2022/08/04 07:53:34;;;;;;;50.22;36.78;;;26.60;97.30;;;;;;5007573;28;20223;-69
2022/08/04 07:56:04;;;;;;;45.78;34.03;;;26.60;97.20;;;;;;5007898;28;20209;-70
2022/08/04 07:58:31;;;;;;;39.00;29.80;;;26.60;97.30;;;;;;5006759;28;20206;-70
2022/08/04 08:00:58;;;;;;;36.78;25.38;;;26.70;97.30;;;;;;5008046;28;20217;-70
2022/08/04 08:03:26;;;;;;;30.20;22.77;;;26.70;97.40;;;;;;5007982;28;20221;-70
2022/08/04 08:05:54;;;;;;;26.92;22.60;;;26.70;97.60;;;;;;5007624;28;20263;-70
2022/08/04 08:08:21;;;;;;;27.77;18.98;;;26.70;97.70;;;;;;5007587;28;20292;-70
2022/08/04 08:10:49;;;;;;;26.85;18.42;;;26.70;97.80;;;;;;5007165;28;20247;-70
2022/08/04 08:13:15;;;;;;;22.88;17.15;;;26.80;97.90;;;;;;5007625;28;20757;-70
2022/08/04 08:15:45;;;;;;;18.70;13.90;;;26.90;98.00;;;;;;5008022;28;20271;-70
2022/08/04 08:18:12;;;;;;;18.60;14.10;;;26.90;98.00;;;;;;5007659;28;20263;-70
2022/08/04 08:20:39;;;;;;;16.30;13.70;;;26.90;97.90;;;;;;5007435;28;20891;-70
2022/08/04 08:23:08;;;;;;;15.70;13.20;;;26.90;97.90;;;;;;5008028;28;20303;-70
2022/08/04 08:25:35;;;;;;;14.63;12.75;;;27.00;97.80;;;;;;5007426;28;20213;-70
2022/08/04 08:28:03;;;;;;;14.38;9.68;;;27.00;97.70;;;;;;5007625;28;20668;-70
2022/08/04 08:30:31;;;;;;;11.05;8.35;;;27.10;97.70;;;;;;5007583;28;20225;-70
2022/08/04 08:32:58;;;;;;;11.00;8.20;;;27.10;97.50;;;;;;5007852;28;20328;-70
2022/08/04 08:35:27;;;;;;;9.10;7.57;;;27.10;97.30;;;;;;5007790;28;20205;-70
2022/08/04 08:37:58;;;;;;;9.82;7.07;;;27.20;97.20;;;;;;5007403;28;20296;-70
2022/08/04 08:40:33;;;;;;;11.88;6.78;;;27.20;97.00;;;;;;5007605;28;20950;-70
2022/08/04 08:43:40;;;;;;;7.32;4.88;;;27.30;96.80;;;;;;5007415;28;20197;-70
2022/08/04 08:46:34;;;;;;;5.95;5.47;;;27.30;96.50;;;;;;5005042;28;20205;-70
2022/08/04 08:49:27;;;;;;;5.30;4.72;;;27.40;96.40;;;;;;5007513;28;20711;-69
2022/08/04 08:52:16;;;;;;;11.50;4.68;;;27.50;96.30;;;;;;5007530;28;20217;-69
2022/08/04 08:55:08;;;;;;;8.18;4.82;;;27.50;96.50;;;;;;5006901;28;20216;-70
2022/08/04 08:57:49;;;;;;;7.50;6.63;;;27.60;96.40;;;;;;5006739;28;20255;-69
2022/08/04 09:00:23;;;;;;;5.78;4.07;;;27.70;96.20;;;;;;5007016;28;20644;-70
2022/08/04 09:03:17;;;;;;;4.82;4.30;;;27.70;96.00;;;;;;5007222;28;20198;-70
2022/08/04 09:06:06;;;;;;;8.40;5.90;;;27.70;95.60;;;;;;5007700;28;20276;-70
2022/08/04 09:09:04;;;;;;;9.65;6.93;;;27.80;95.70;;;;;;5004157;28;20210;-70
2022/08/04 09:11:39;;;;;;;6.47;5.88;;;27.80;95.60;;;;;;5004157;28;20234;-70
2022/08/04 09:14:17;;;;;;;7.80;6.28;;;28.00;93.70;;;;;;5010999;28;20289;-70
2022/08/04 09:16:49;;;;;;;6.75;6.10;;;28.20;93.80;;;;;;5010972;28;20201;-70
2022/08/04 09:19:23;;;;;;;8.30;5.20;;;28.20;94.00;;;;;;5010930;28;20193;-69
2022/08/04 09:21:57;;;;;;;4.85;4.30;;;28.20;93.20;;;;;;5010411;28;20197;-70
2022/08/04 09:24:32;;;;;;;11.93;8.90;;;28.30;93.40;;;;;;5010725;28;20205;-69
2022/08/04 09:27:02;;;;;;;11.18;9.25;;;28.30;93.60;;;;;;5010779;28;20204;-70
2022/08/04 09:29:43;;;;;;;7.28;6.57;;;28.40;93.60;;;;;;5010511;28;20803;-70
2022/08/04 09:32:17;;;;;;;8.90;7.60;;;28.50;92.60;;;;;;5010481;28;20243;-70
2022/08/04 09:35:02;;;;;;;9.88;7.72;;;28.60;92.80;;;;;;5010751;28;20221;-70
2022/08/04 09:37:38;;;;;;;7.25;6.50;;;28.60;92.90;;;;;;5010680;28;20485;-70
2022/08/04 09:40:11;;;;;;;7.40;6.63;;;28.70;92.70;;;;;;5010522;28;20288;-70
2022/08/04 09:42:49;;;;;;;7.07;6.40;;;28.70;92.70;;;;;;5010186;28;20197;-70
2022/08/04 09:45:27;;;;;;;6.65;5.70;;;28.80;92.80;;;;;;5010533;28;20255;-70
2022/08/04 09:47:59;;;;;;;9.60;6.90;;;28.80;92.70;;;;;;5010611;28;20634;-70
2022/08/04 09:50:38;;;;;;;5.90;5.40;;;28.80;92.80;;;;;;5010523;28;20600;-70
2022/08/04 09:53:29;;;;;;;5.43;5.05;;;28.90;92.60;;;;;;5010095;28;20806;-70
2022/08/04 09:56:06;;;;;;;8.50;7.65;;;28.90;92.40;;;;;;5010004;28;20568;-70
2022/08/04 09:58:47;;;;;;;18.98;12.63;;;29.00;92.60;;;;;;5009827;28;20231;-70
2022/08/04 10:01:19;;;;;;;20.40;16.08;;;29.00;92.70;;;;;;5010129;28;20659;-69
2022/08/04 10:03:50;;;;;;;20.83;18.63;;;29.00;92.50;;;;;;5010146;28;20201;-69
2022/08/04 10:06:35;;;;;;;22.10;19.63;;;29.10;92.50;;;;;;5010203;28;20229;-69
2022/08/04 10:09:13;;;;;;;21.52;19.38;;;29.20;92.20;;;;;;5010154;28;20194;-69
2022/08/04 10:11:54;;;;;;;31.38;27.67;;;29.20;92.40;;;;;;5009908;28;20221;-70
2022/08/04 10:14:37;;;;;;;45.03;38.63;;;29.20;92.30;;;;;;5009806;28;20193;-69
2022/08/04 10:17:23;;;;;;;37.03;30.05;;;29.30;92.00;;;;;;5009961;28;20228;-69
2022/08/04 10:20:00;;;;;;;32.70;29.00;;;29.40;91.70;;;;;;5009567;28;20656;-69
2022/08/04 10:22:36;;;;;;;29.25;26.10;;;29.50;91.40;;;;;;5008954;28;20644;-70
2022/08/04 10:25:13;;;;;;;17.65;15.68;;;29.50;90.80;;;;;;5009449;28;20215;-69
2022/08/04 10:27:44;;;;;;;17.25;15.52;;;29.60;90.70;;;;;;5009417;28;20296;-69
2022/08/04 10:30:13;;;;;;;23.67;21.27;;;29.70;90.80;;;;;;5009957;28;20565;-69
2022/08/04 10:32:49;;;;;;;16.33;14.63;;;29.80;91.10;;;;;;5009366;28;20616;-69
2022/08/04 10:35:19;;;;;;;21.27;17.70;;;29.80;91.60;;;;;;5009444;28;20204;-69
2022/08/04 10:37:59;;;;;;;16.23;14.63;;;29.80;91.10;;;;;;5009295;28;20198;-69
2022/08/04 10:40:43;;;;;;;14.40;11.73;;;29.80;91.10;;;;;;5009289;28;20224;-69
2022/08/04 10:43:20;;;;;;;11.05;9.68;;;29.90;91.10;;;;;;5009602;28;20193;-70
2022/08/04 10:45:52;;;;;;;13.77;10.25;;;29.90;91.80;;;;;;5009629;28;20197;-69
2022/08/04 10:48:29;;;;;;;16.88;15.20;;;30.00;91.60;;;;;;5009599;28;20201;-69
2022/08/04 10:51:06;;;;;;;16.35;13.95;;;30.00;91.50;;;;;;5009624;28;20201;-69
2022/08/04 10:53:37;;;;;;;17.88;15.57;;;30.10;91.70;;;;;;5009067;28;20618;-69
2022/08/04 10:56:15;;;;;;;17.38;14.95;;;30.20;91.60;;;;;;5008924;28;20194;-70
2022/08/04 10:58:49;;;;;;;9.88;8.98;;;30.20;91.60;;;;;;5008849;28;20284;-70
2022/08/04 11:01:23;;;;;;;7.63;5.43;;;30.30;91.70;;;;;;5008932;28;20645;-70
2022/08/04 11:03:58;;;;;;;7.35;6.30;;;30.30;92.00;;;;;;5009284;28;20217;-70
2022/08/04 11:06:26;;;;;;;19.80;17.75;;;30.40;92.30;;;;;;5009212;28;20296;-70
2022/08/04 11:08:55;;;;;;;36.83;32.72;;;30.40;92.90;;;;;;5008955;28;20213;-70
2022/08/04 11:11:31;;;;;;;33.80;28.35;;;30.50;92.50;;;;;;5008385;28;20237;-70
2022/08/04 11:14:03;;;;;;;21.08;18.88;;;30.60;92.10;;;;;;5008984;28;20193;-70
2022/08/04 11:16:36;;;;;;;30.70;27.15;;;30.60;91.60;;;;;;5008687;28;21128;-70
2022/08/04 11:19:17;;;;;;;35.80;27.08;;;30.70;91.50;;;;;;5008398;28;20903;-70
2022/08/04 11:21:53;;;;;;;20.75;16.63;;;30.80;91.90;;;;;;5008738;28;20189;-70
2022/08/04 11:24:28;;;;;;;14.75;12.45;;;30.90;91.90;;;;;;5008609;28;20214;-70
2022/08/04 11:26:59;;;;;;;12.13;9.90;;;30.90;90.90;;;;;;5008506;28;20212;-70
2022/08/04 11:29:34;;;;;;;7.93;6.50;;;31.00;90.60;;;;;;5008296;28;20661;-70
2022/08/04 11:32:05;;;;;;;13.10;11.43;;;31.20;90.00;;;;;;5008271;28;20248;-70
2022/08/04 11:34:35;;;;;;;13.27;11.95;;;31.20;90.50;;;;;;5008413;28;20225;-70
2022/08/04 11:37:09;;;;;;;15.27;10.68;;;31.30;90.70;;;;;;5008619;28;20618;-71
2022/08/04 11:39:42;;;;;;;9.45;6.80;;;31.40;90.80;;;;;;5007994;28;20280;-71
2022/08/04 11:42:18;;;;;;;6.63;6.05;;;31.40;90.50;;;;;;5007886;28;20664;-70
2022/08/04 11:44:49;;;;;;;5.55;5.05;;;31.40;90.00;;;;;;5008096;28;20208;-70
2022/08/04 11:47:24;;;;;;;8.88;7.88;;;31.40;89.60;;;;;;5008406;28;20194;-70
2022/08/04 11:49:59;;;;;;;18.55;13.27;;;31.50;89.60;;;;;;5008001;28;20255;-70
2022/08/04 11:52:27;;;;;;;22.40;19.05;;;31.50;88.90;;;;;;5008062;28;20221;-70
2022/08/04 11:54:57;;;;;;;20.17;17.92;;;31.50;88.90;;;;;;5007773;28;20267;-70
2022/08/04 11:57:24;;;;;;;17.00;12.70;;;31.50;89.10;;;;;;5007728;28;20299;-70
2022/08/04 11:59:56;;;;;;;6.82;6.10;;;31.60;89.00;;;;;;5007906;28;20293;-70
2022/08/04 12:02:52;;;;;;;7.45;3.90;;;31.60;89.10;;;;;;5008072;28;20228;-70
2022/08/04 12:05:27;;;;;;;4.30;3.13;;;31.60;89.60;;;;;;5004765;28;20209;-70
2022/08/04 12:08:03;;;;;;;3.38;3.03;;;31.60;89.90;;;;;;5008006;28;20199;-70
2022/08/04 12:10:41;;;;;;;3.00;2.72;;;31.60;89.90;;;;;;5008090;28;20198;-70
2022/08/04 12:13:15;;;;;;;2.85;2.30;;;31.60;89.90;;;;;;5008136;28;20232;-70
2022/08/04 12:15:52;;;;;;;2.50;2.40;;;31.70;87.10;;;;;;5007663;28;20199;-70
2022/08/04 12:18:24;;;;;;;2.60;2.50;;;31.80;85.60;;;;;;5007935;28;20213;-70
2022/08/04 12:20:58;;;;;;;2.30;2.20;;;31.90;87.00;;;;;;5007793;28;20221;-70
2022/08/04 12:23:30;;;;;;;2.55;2.30;;;31.90;86.80;;;;;;5007474;28;20213;-70
2022/08/04 12:26:06;;;;;;;1.80;1.80;;;31.90;85.80;;;;;;5007646;28;20200;-70
2022/08/04 12:28:36;;;;;;;3.42;2.50;;;31.90;85.20;;;;;;5007374;28;21074;-70
2022/08/04 12:31:10;;;;;;;7.25;2.50;;;31.90;86.10;;;;;;5007731;28;20247;-70
2022/08/04 12:33:42;;;;;;;2.15;2.00;;;31.90;86.40;;;;;;5007359;28;20224;-70
2022/08/04 12:36:19;;;;;;;2.25;2.15;;;31.90;84.90;;;;;;5007864;28;20196;-70
2022/08/04 12:38:52;;;;;;;3.20;2.28;;;31.90;86.40;;;;;;5007078;28;20660;-70
2022/08/04 12:41:24;;;;;;;3.15;2.30;;;31.90;87.00;;;;;;5007591;28;20205;-70
2022/08/04 12:43:51;;;;;;;2.10;2.00;;;31.90;86.10;;;;;;5007324;28;20229;-70
2022/08/04 12:46:23;;;;;;;8.80;2.70;;;32.10;83.20;;;;;;5011409;28;20423;-70
2022/08/04 12:48:51;;;;;;;3.25;2.33;;;32.10;83.00;;;;;;5011407;28;20194;-70
2022/08/04 12:51:19;;;;;;;2.53;2.33;;;32.20;82.30;;;;;;5011311;28;20581;-70
2022/08/04 12:53:47;;;;;;;2.47;2.38;;;32.30;81.40;;;;;;5011412;28;20237;-70
2022/08/04 12:56:15;;;;;;;2.08;1.92;;;32.40;81.60;;;;;;5011254;28;20210;-70
2022/08/04 12:58:44;;;;;;;2.50;2.30;;;32.50;81.90;;;;;;5003468;28;20839;-70
2022/08/04 13:01:13;;;;;;;2.45;2.30;;;32.50;82.00;;;;;;5005823;28;20210;-70
2022/08/04 13:03:43;;;;;;;3.88;2.50;;;32.40;83.60;;;;;;5010781;28;20267;-69
2022/08/04 13:06:14;;;;;;;2.80;2.60;;;32.40;86.30;;;;;;4997796;28;20202;-70
2022/08/04 13:08:46;;;;;;;3.35;2.80;;;32.40;87.20;;;;;;4989792;28;20249;-69
2022/08/04 13:11:14;;;;;;;2.92;2.38;;;32.30;87.20;;;;;;4989702;28;20198;-69
2022/08/04 13:13:44;;;;;;;3.10;2.10;;;32.30;85.20;;;;;;4989922;28;20242;-70
2022/08/04 13:16:11;;;;;;;2.40;2.20;;;32.30;82.90;;;;;;4989394;28;20221;-70
2022/08/04 13:18:41;;;;;;;2.75;2.17;;;32.30;81.40;;;;;;4989140;28;20213;-69
2022/08/04 13:21:12;;;;;;;2.30;2.10;;;32.30;82.90;;;;;;4989281;28;20237;-69
2022/08/04 13:23:45;;;;;;;2.42;2.33;;;32.30;80.60;;;;;;4996442;28;20209;-70
2022/08/04 13:26:13;;;;;;;2.70;2.50;;;32.40;79.20;;;;;;5008870;28;20214;-70